createdAt,value
2022-09-12T00:01:37.819Z,14.09
2022-09-12T00:04:06.965Z,14.05
2022-09-12T00:06:37.830Z,14.01
2022-09-12T00:09:13.934Z,14.01
2022-09-12T00:11:46.963Z,13.98
2022-09-12T00:14:18.189Z,13.88
2022-09-12T00:16:47.031Z,13.84
2022-09-12T00:19:16.192Z,13.81
2022-09-12T00:21:44.975Z,13.79
2022-09-12T00:24:13.657Z,13.79
2022-09-12T00:26:42.559Z,13.78
2022-09-12T00:29:21.865Z,13.76
2022-09-12T00:31:50.478Z,13.75
2022-09-12T00:34:19.214Z,13.75
2022-09-12T00:36:47.837Z,13.73
2022-09-12T00:39:18.064Z,13.68
2022-09-12T00:41:46.973Z,13.63
2022-09-12T00:44:15.475Z,13.57
2022-09-12T00:46:48.053Z,13.53
2022-09-12T00:49:50.098Z,13.53
2022-09-12T00:52:26.767Z,13.55
2022-09-12T00:55:00.982Z,13.59
2022-09-12T00:57:45.962Z,13.60
2022-09-12T01:00:19.064Z,13.61
2022-09-12T01:02:53.282Z,13.63
2022-09-12T01:05:24.499Z,13.66
2022-09-12T01:07:55.220Z,13.67
2022-09-12T01:10:25.163Z,13.74
2022-09-12T01:12:54.242Z,13.76
2022-09-12T01:15:22.897Z,13.72
2022-09-12T01:18:10.256Z,13.70
2022-09-12T01:21:01.936Z,13.70
2022-09-12T01:24:05.975Z,13.71
2022-09-12T01:27:14.427Z,13.70
2022-09-12T01:30:23.242Z,13.70
2022-09-12T01:33:23.667Z,13.66
2022-09-12T01:36:03.105Z,13.63
2022-09-12T01:39:09.386Z,13.59
2022-09-12T01:41:50.537Z,13.51
2022-09-12T01:45:15.364Z,13.47
2022-09-12T01:47:53.610Z,13.47
2022-09-12T01:50:28.570Z,13.46
2022-09-12T01:53:26.693Z,13.43
2022-09-12T01:56:05.858Z,13.40
2022-09-12T01:58:47.273Z,13.40
2022-09-12T02:01:36.580Z,13.41
2022-09-12T02:04:33.995Z,13.41
2022-09-12T02:07:42.546Z,13.42
2022-09-12T02:10:22.321Z,13.43
2022-09-12T02:13:13.614Z,13.42
2022-09-12T02:15:52.987Z,13.39
2022-09-12T02:18:22.231Z,13.38
2022-09-12T02:20:51.987Z,13.39
2022-09-12T02:23:29.046Z,13.40
2022-09-12T02:26:05.009Z,13.40
2022-09-12T02:28:42.300Z,13.40
2022-09-12T02:31:25.953Z,13.42
2022-09-12T02:34:10.684Z,13.42
2022-09-12T02:37:19.155Z,13.42
2022-09-12T02:39:47.907Z,13.39
2022-09-12T02:42:16.695Z,13.39
2022-09-12T02:44:45.609Z,13.37
2022-09-12T02:47:30.336Z,13.35
2022-09-12T02:50:00.389Z,13.27
2022-09-12T02:52:30.098Z,13.21
2022-09-12T02:55:00.070Z,13.17
2022-09-12T02:57:28.898Z,13.14
2022-09-12T03:00:01.734Z,13.09
2022-09-12T03:03:16.546Z,13.05
2022-09-12T03:06:36.728Z,13.06
2022-09-12T03:09:44.858Z,13.07
2022-09-12T03:12:32.112Z,13.09
2022-09-12T03:15:04.393Z,13.08
2022-09-12T03:17:45.809Z,13.08
2022-09-12T03:20:47.613Z,13.07
2022-09-12T03:23:51.615Z,13.04
2022-09-12T03:26:31.402Z,13.02
2022-09-12T03:29:02.626Z,12.98
2022-09-12T03:31:32.103Z,12.93
2022-09-12T03:34:01.423Z,12.90
2022-09-12T03:36:30.960Z,12.83
2022-09-12T03:38:59.622Z,12.82
2022-09-12T03:41:28.240Z,12.78
2022-09-12T03:43:57.287Z,12.76
2022-09-12T03:46:26.043Z,12.74
2022-09-12T03:48:54.679Z,12.73
2022-09-12T03:51:23.311Z,12.73
2022-09-12T03:53:52.005Z,12.74
2022-09-12T03:56:21.213Z,12.77
2022-09-12T03:58:49.818Z,12.77
2022-09-12T04:01:20.505Z,12.77
2022-09-12T04:03:52.040Z,12.84
2022-09-12T04:06:23.235Z,12.88
2022-09-12T04:08:53.981Z,12.95
2022-09-12T04:11:24.315Z,13.02
2022-09-12T04:13:52.996Z,13.07
2022-09-12T04:16:21.818Z,13.15
2022-09-12T04:18:50.503Z,13.22
2022-09-12T04:21:22.387Z,13.31
2022-09-12T04:23:51.279Z,13.38
2022-09-12T04:26:21.033Z,13.47
2022-09-12T04:28:58.127Z,13.54
2022-09-12T04:31:27.322Z,13.64
2022-09-12T04:33:58.032Z,13.70
2022-09-12T04:36:28.666Z,13.73
2022-09-12T04:38:57.370Z,13.76
2022-09-12T04:41:32.055Z,13.79
2022-09-12T04:44:07.946Z,13.84
2022-09-12T04:46:42.319Z,13.89
2022-09-12T04:49:12.766Z,14.01
2022-09-12T04:51:43.346Z,14.11
2022-09-12T04:54:17.184Z,14.20
2022-09-12T04:56:49.754Z,14.34
2022-09-12T04:59:21.189Z,14.36
2022-09-12T05:01:50.640Z,14.32
2022-09-12T05:04:20.082Z,14.41
2022-09-12T05:06:49.076Z,14.37
2022-09-12T05:09:17.757Z,14.51
2022-09-12T05:14:35.619Z,14.65
2022-09-12T05:17:06.354Z,14.64
2022-09-12T05:19:35.244Z,14.73
2022-09-12T05:22:05.354Z,14.75
2022-09-12T05:24:34.299Z,14.74
2022-09-12T05:27:05.080Z,14.82
2022-09-12T05:29:34.394Z,14.84
2022-09-12T05:32:04.413Z,14.81
2022-09-12T05:34:33.206Z,14.83
2022-09-12T05:37:01.876Z,14.83
2022-09-12T05:39:31.187Z,14.82
2022-09-12T05:41:59.965Z,14.77
2022-09-12T05:44:28.802Z,14.72
2022-09-12T05:46:57.969Z,14.70
2022-09-12T05:49:27.167Z,14.70
2022-09-12T05:51:55.855Z,14.72
2022-09-12T05:54:28.304Z,14.72
2022-09-12T05:57:00.329Z,14.76
2022-09-12T05:59:28.828Z,14.80
2022-09-12T06:01:57.607Z,14.85
2022-09-12T06:04:28.186Z,14.82
2022-09-12T06:06:57.290Z,14.89
2022-09-12T06:09:25.865Z,14.94
2022-09-12T06:11:54.632Z,14.89
2022-09-12T06:14:23.359Z,14.90
2022-09-12T06:16:51.973Z,14.73
2022-09-12T06:19:23.399Z,14.51
2022-09-12T06:21:53.915Z,14.39
2022-09-12T06:24:23.153Z,14.19
2022-09-12T06:26:53.122Z,14.20
2022-09-12T06:29:22.740Z,14.00
2022-09-12T06:31:51.416Z,13.86
2022-09-12T06:34:20.308Z,13.88
2022-09-12T06:36:50.123Z,13.89
2022-09-12T06:39:23.526Z,13.94
2022-09-12T06:41:53.232Z,13.92
2022-09-12T06:44:32.062Z,14.09
2022-09-12T06:47:00.842Z,14.14
2022-09-12T06:49:29.633Z,14.32
2022-09-12T06:51:58.430Z,14.52
2022-09-12T06:54:27.416Z,14.71
2022-09-12T06:56:56.065Z,14.97
2022-09-12T06:59:25.182Z,15.14
2022-09-12T07:01:53.954Z,15.31
2022-09-12T07:04:22.992Z,15.24
2022-09-12T07:06:51.862Z,15.34
2022-09-12T07:09:20.760Z,15.35
2022-09-12T07:11:49.332Z,15.30
2022-09-12T07:14:17.931Z,15.09
2022-09-12T07:16:46.619Z,15.24
2022-09-12T07:19:15.431Z,15.16
2022-09-12T07:21:44.930Z,15.19
2022-09-12T07:24:13.624Z,15.14
2022-09-12T07:26:43.006Z,15.16
2022-09-12T07:32:07.125Z,15.23
2022-09-12T07:34:36.823Z,15.33
2022-09-12T07:37:06.497Z,15.36
2022-09-12T07:39:35.215Z,15.41
2022-09-12T07:42:04.046Z,15.42
2022-09-12T07:44:33.559Z,15.55
2022-09-12T07:47:02.949Z,15.56
2022-09-12T07:49:31.651Z,15.74
2022-09-12T07:52:00.299Z,15.68
2022-09-12T07:54:28.965Z,15.89
2022-09-12T07:56:57.700Z,16.14
2022-09-12T07:59:50.798Z,16.18
2022-09-12T08:02:17.594Z,16.45
2022-09-12T08:04:49.421Z,16.47
2022-09-12T08:07:19.481Z,16.39
2022-09-12T08:09:48.386Z,16.21
2022-09-12T08:12:18.242Z,16.06
2022-09-12T08:14:46.989Z,16.27
2022-09-12T08:17:15.660Z,16.28
2022-09-12T08:19:45.153Z,16.21
2022-09-12T08:22:13.891Z,16.23
2022-09-12T08:24:42.612Z,16.20
2022-09-12T08:27:11.291Z,16.20
2022-09-12T08:29:39.908Z,16.13
2022-09-12T08:32:09.205Z,15.83
2022-09-12T08:34:37.880Z,15.86
2022-09-12T08:37:06.593Z,15.71
2022-09-12T08:39:35.176Z,15.47
2022-09-12T08:42:06.894Z,15.44
2022-09-12T08:44:47.969Z,15.56
2022-09-12T08:47:37.678Z,15.54
2022-09-12T08:50:11.989Z,15.52
2022-09-12T08:53:03.810Z,15.60
2022-09-12T08:55:39.350Z,15.67
2022-09-12T08:58:17.304Z,15.72
2022-09-12T09:01:11.155Z,15.81
2022-09-12T09:04:25.679Z,15.61
2022-09-12T09:07:38.880Z,15.79
2022-09-12T09:10:14.178Z,15.87
2022-09-12T09:12:57.292Z,16.11
2022-09-12T09:16:04.022Z,16.23
2022-09-12T09:18:38.404Z,16.46
2022-09-12T09:21:51.015Z,16.38
2022-09-12T09:24:26.269Z,16.39
2022-09-12T09:27:29.838Z,16.59
2022-09-12T09:29:58.620Z,16.59
2022-09-12T09:32:35.015Z,16.53
2022-09-12T09:35:17.217Z,16.66
2022-09-12T09:37:58.892Z,16.88
2022-09-12T09:40:47.341Z,16.93
2022-09-12T09:43:24.692Z,16.97
2022-09-12T09:45:54.296Z,17.11
2022-09-12T09:48:38.106Z,17.14
2022-09-12T09:51:09.637Z,17.03
2022-09-12T09:54:13.298Z,17.10
2022-09-12T09:56:43.609Z,17.17
2022-09-12T09:59:30.071Z,17.38
2022-09-12T10:02:29.565Z,17.76
2022-09-12T10:04:59.595Z,18.05
2022-09-12T10:07:28.332Z,17.86
2022-09-12T10:10:23.183Z,17.96
2022-09-12T10:13:09.349Z,17.86
2022-09-12T10:15:38.711Z,17.66
2022-09-12T10:18:07.453Z,17.55
2022-09-12T10:20:42.987Z,17.65
2022-09-12T10:23:19.342Z,17.64
2022-09-12T10:25:55.144Z,17.68
2022-09-12T10:28:49.222Z,17.67
2022-09-12T10:31:29.674Z,17.65
2022-09-12T10:34:01.138Z,17.46
2022-09-12T10:36:39.449Z,17.37
2022-09-12T10:39:18.852Z,17.31
2022-09-12T10:41:47.553Z,17.19
2022-09-12T10:44:26.495Z,17.10
2022-09-12T10:46:57.763Z,17.20
2022-09-12T10:49:31.711Z,17.16
2022-09-12T10:52:27.586Z,17.06
2022-09-12T10:54:56.462Z,17.11
2022-09-12T10:58:18.700Z,17.18
2022-09-12T11:01:00.026Z,17.29
2022-09-12T11:03:52.593Z,17.33
2022-09-12T11:06:33.614Z,17.32
2022-09-12T11:09:26.420Z,17.49
2022-09-12T11:12:18.812Z,17.48
2022-09-12T11:15:29.883Z,17.50
2022-09-12T11:18:29.092Z,17.50
2022-09-12T11:21:23.722Z,17.44
2022-09-12T11:24:26.983Z,17.63
2022-09-12T11:27:26.960Z,17.84
2022-09-12T11:30:12.602Z,17.83
2022-09-12T11:33:01.756Z,17.98
2022-09-12T11:35:33.468Z,18.14
2022-09-12T11:39:13.079Z,18.50
2022-09-12T11:41:48.643Z,19.08
2022-09-12T11:44:33.396Z,19.47
2022-09-12T11:47:08.444Z,19.42
2022-09-12T11:49:44.310Z,19.15
2022-09-12T11:52:29.685Z,18.94
2022-09-12T11:55:26.275Z,18.61
2022-09-12T11:57:59.403Z,18.37
2022-09-12T12:00:56.370Z,17.92
2022-09-12T12:03:44.846Z,17.85
2022-09-12T12:06:34.031Z,17.97
2022-09-12T12:09:05.327Z,17.92
2022-09-12T12:11:39.253Z,17.78
2022-09-12T12:14:23.398Z,17.61
2022-09-12T12:16:52.523Z,17.39
2022-09-12T12:19:35.331Z,17.14
2022-09-12T12:22:25.413Z,16.96
2022-09-12T12:25:29.599Z,16.80
2022-09-12T12:28:06.581Z,16.64
2022-09-12T12:31:02.527Z,16.58
2022-09-12T12:33:31.130Z,16.54
2022-09-12T12:35:59.754Z,16.49
2022-09-12T12:38:34.198Z,16.60
2022-09-12T12:41:18.148Z,16.61
2022-09-12T12:43:56.482Z,16.70
2022-09-12T12:46:28.944Z,16.87
2022-09-12T12:49:10.952Z,16.90
2022-09-12T12:51:47.735Z,17.16
2022-09-12T12:54:41.327Z,17.38
2022-09-12T12:57:13.363Z,17.30
2022-09-12T13:00:09.246Z,17.32
2022-09-12T13:02:51.318Z,17.28
2022-09-12T13:05:24.732Z,17.28
2022-09-12T13:08:07.077Z,17.23
2022-09-12T13:10:36.297Z,17.40
2022-09-12T13:13:08.862Z,17.30
2022-09-12T13:15:38.081Z,17.51
2022-09-12T13:18:28.538Z,17.68
2022-09-12T13:21:18.875Z,17.73
2022-09-12T13:24:02.912Z,17.65
2022-09-12T13:26:43.286Z,17.89
2022-09-12T13:29:23.627Z,18.28
2022-09-12T13:31:59.585Z,18.28
2022-09-12T13:34:30.720Z,17.97
2022-09-12T13:37:49.716Z,17.74
2022-09-12T13:40:38.663Z,17.31
2022-09-12T13:43:23.667Z,17.17
2022-09-12T13:45:53.712Z,16.86
2022-09-12T13:48:26.124Z,16.65
2022-09-12T13:51:00.190Z,16.51
2022-09-12T13:53:47.653Z,16.34
2022-09-12T13:56:21.038Z,16.05
2022-09-12T13:58:55.096Z,16.07
2022-09-12T14:01:37.745Z,16.04
2022-09-12T14:04:45.905Z,15.97
2022-09-12T14:07:20.423Z,15.86
2022-09-12T14:10:00.080Z,15.88
2022-09-12T14:12:35.811Z,15.75
2022-09-12T14:15:05.740Z,15.75
2022-09-12T14:17:39.618Z,15.66
2022-09-12T14:20:16.703Z,15.57
2022-09-12T14:22:50.463Z,15.57
2022-09-12T14:25:25.427Z,15.49
2022-09-12T14:27:56.868Z,15.46
2022-09-12T14:30:37.074Z,15.46
2022-09-12T14:33:20.069Z,15.42
2022-09-12T14:36:10.395Z,15.41
2022-09-12T14:38:45.879Z,15.35
2022-09-12T14:41:27.170Z,15.27
2022-09-12T14:44:14.654Z,15.21
2022-09-12T14:46:45.061Z,15.20
2022-09-12T14:49:36.107Z,15.15
2022-09-12T14:52:08.484Z,15.14
2022-09-12T14:54:40.439Z,15.15
2022-09-12T14:57:40.715Z,15.20
2022-09-12T15:00:23.381Z,15.22
2022-09-12T15:02:53.434Z,15.21
2022-09-12T15:05:27.865Z,15.23
2022-09-12T15:08:02.264Z,15.14
2022-09-12T15:10:38.648Z,15.13
2022-09-12T15:13:10.257Z,15.07
2022-09-12T15:15:41.636Z,15.02
2022-09-12T15:18:10.560Z,14.89
2022-09-12T15:20:42.884Z,14.81
2022-09-12T15:23:19.362Z,14.85
2022-09-12T15:25:48.782Z,14.82
2022-09-12T15:28:24.176Z,14.83
2022-09-12T15:30:56.396Z,14.81
2022-09-12T15:33:25.736Z,14.78
2022-09-12T15:35:54.397Z,14.80
2022-09-12T15:38:26.500Z,14.82
2022-09-12T15:40:56.180Z,14.79
2022-09-12T15:43:26.605Z,14.79
2022-09-12T15:45:55.298Z,14.74
2022-09-12T15:48:24.328Z,14.72
2022-09-12T15:50:53.774Z,14.69
2022-09-12T15:53:23.259Z,14.70
2022-09-12T15:55:52.017Z,14.74
2022-09-12T15:58:20.854Z,14.69
2022-09-12T16:00:49.881Z,14.79
2022-09-12T16:03:25.979Z,14.86
2022-09-12T16:06:03.561Z,14.79
2022-09-12T16:08:32.531Z,14.64
2022-09-12T16:11:33.822Z,14.62
2022-09-12T16:14:03.991Z,14.54
2022-09-12T16:16:33.927Z,14.48
2022-09-12T16:19:07.779Z,14.43
2022-09-12T16:21:38.252Z,14.32
2022-09-12T16:24:07.219Z,14.32
2022-09-12T16:26:35.933Z,14.24
2022-09-12T16:29:04.791Z,14.19
2022-09-12T16:31:33.540Z,14.16
2022-09-12T16:34:02.330Z,14.12
2022-09-12T16:36:33.872Z,14.12
2022-09-12T16:39:22.118Z,14.05
2022-09-12T16:41:51.397Z,14.01
2022-09-12T16:44:20.213Z,13.98
2022-09-12T16:46:50.307Z,13.97
2022-09-12T16:49:29.784Z,13.99
2022-09-12T16:52:05.903Z,13.97
2022-09-12T16:54:37.017Z,13.98
2022-09-12T16:57:49.745Z,13.95
2022-09-12T17:00:23.464Z,13.93
2022-09-12T17:02:52.132Z,13.90
2022-09-12T17:05:21.645Z,13.84
2022-09-12T17:07:52.189Z,13.85
2022-09-12T17:10:21.118Z,13.85
2022-09-12T17:12:50.366Z,13.82
2022-09-12T17:15:20.958Z,13.77
2022-09-12T17:17:52.482Z,13.71
2022-09-12T17:20:21.174Z,13.72
2022-09-12T17:22:50.041Z,13.69
2022-09-12T17:25:19.182Z,13.73
2022-09-12T17:27:54.564Z,13.74
2022-09-12T17:30:23.368Z,13.74
2022-09-12T17:32:52.741Z,13.69
2022-09-12T17:35:21.606Z,13.73
2022-09-12T17:37:50.310Z,13.71
2022-09-12T17:40:48.786Z,13.65
2022-09-12T17:43:15.788Z,13.62
2022-09-12T17:45:44.592Z,13.63
2022-09-12T17:48:13.336Z,13.63
2022-09-12T17:50:41.970Z,13.63
2022-09-12T17:53:11.216Z,13.61
2022-09-12T17:55:41.092Z,13.54
2022-09-12T17:58:10.034Z,13.52
2022-09-12T18:00:57.794Z,13.51
2022-09-12T18:03:27.926Z,13.43
2022-09-12T18:05:57.438Z,13.45
2022-09-12T18:08:26.188Z,13.44
2022-09-12T18:10:54.866Z,13.39
2022-09-12T18:13:23.471Z,13.40
2022-09-12T18:15:52.118Z,13.41
2022-09-12T18:18:21.172Z,13.39
2022-09-12T18:20:52.913Z,13.38
2022-09-12T18:23:21.617Z,13.37
2022-09-12T18:25:50.225Z,13.37
2022-09-12T18:28:19.117Z,13.42
2022-09-12T18:30:47.817Z,13.43
2022-09-12T18:33:18.813Z,13.48
2022-09-12T18:35:50.765Z,13.49
2022-09-12T18:38:19.380Z,13.48
2022-09-12T18:40:48.130Z,13.48
2022-09-12T18:43:16.827Z,13.48
2022-09-12T18:45:45.519Z,13.43
2022-09-12T18:48:14.343Z,13.43
2022-09-12T18:50:42.977Z,13.45
2022-09-12T18:53:11.753Z,13.45
2022-09-12T18:55:42.614Z,13.42
2022-09-12T18:58:11.401Z,13.44
2022-09-12T19:00:41.198Z,13.43
2022-09-12T19:03:13.002Z,13.40
2022-09-12T19:05:41.814Z,13.38
2022-09-12T19:08:10.639Z,13.39
2022-09-12T19:10:39.247Z,13.39
2022-09-12T19:13:07.988Z,13.36
2022-09-12T19:15:40.708Z,13.34
2022-09-12T19:18:09.740Z,13.32
2022-09-12T19:20:38.525Z,13.30
2022-09-12T19:23:07.247Z,13.31
2022-09-12T19:25:36.223Z,13.35
2022-09-12T19:28:04.905Z,13.31
2022-09-12T19:30:33.727Z,13.30
2022-09-12T19:33:03.308Z,13.32
2022-09-12T19:35:33.647Z,13.30
2022-09-12T19:38:02.223Z,13.29
2022-09-12T19:40:31.413Z,13.29
2022-09-12T19:43:00.026Z,13.31
2022-09-12T19:45:28.658Z,13.28
2022-09-12T19:47:57.300Z,13.24
2022-09-12T19:50:26.442Z,13.24
2022-09-12T19:52:55.147Z,13.19
2022-09-12T19:55:23.933Z,13.18
2022-09-12T19:57:52.609Z,13.16
2022-09-12T20:00:21.751Z,13.12
2022-09-12T20:02:52.235Z,13.11
2022-09-12T20:05:21.357Z,13.08
2022-09-12T20:07:50.038Z,13.04
2022-09-12T20:10:18.740Z,13.00
2022-09-12T20:12:47.485Z,13.03
2022-09-12T20:15:16.577Z,13.03
2022-09-12T20:17:45.285Z,13.01
2022-09-12T20:20:13.973Z,12.99
2022-09-12T20:22:42.893Z,12.98
2022-09-12T20:25:11.688Z,13.00
2022-09-12T20:27:40.262Z,13.02
2022-09-12T20:30:10.359Z,13.02
2022-09-12T20:32:39.071Z,13.03
2022-09-12T20:35:08.980Z,13.06
2022-09-12T20:37:40.230Z,13.07
2022-09-12T20:40:09.861Z,13.07
2022-09-12T20:42:38.517Z,13.04
2022-09-12T20:45:07.741Z,13.04
2022-09-12T20:47:36.829Z,13.06
2022-09-12T20:50:06.608Z,13.08
2022-09-12T20:52:35.213Z,13.07
2022-09-12T20:55:04.296Z,13.04
2022-09-12T20:57:32.893Z,13.08
2022-09-12T21:00:01.506Z,13.07
2022-09-12T21:02:30.304Z,13.06
2022-09-12T21:04:59.411Z,13.05
2022-09-12T21:07:28.750Z,13.04
2022-09-12T21:09:57.618Z,13.05
2022-09-12T21:12:28.672Z,13.04
2022-09-12T21:14:57.429Z,13.04
2022-09-12T21:17:26.354Z,13.05
2022-09-12T21:19:55.155Z,13.04
2022-09-12T21:22:23.898Z,13.04
2022-09-12T21:24:52.908Z,13.03
2022-09-12T21:27:21.724Z,13.03
2022-09-12T21:29:50.821Z,13.02
2022-09-12T21:32:19.610Z,13.01
2022-09-12T21:34:49.433Z,13.01
2022-09-12T21:37:18.148Z,13.01
2022-09-12T21:39:47.181Z,13.01
2022-09-12T21:42:17.431Z,13.02
2022-09-12T21:44:46.632Z,13.05
2022-09-12T21:47:15.327Z,13.04
2022-09-12T21:49:44.105Z,13.05
2022-09-12T21:52:12.990Z,13.08
2022-09-12T21:54:41.778Z,13.08
2022-09-12T21:57:10.683Z,13.06
2022-09-12T21:59:39.366Z,13.08
2022-09-12T22:02:09.011Z,13.09
2022-09-12T22:04:37.872Z,13.12
2022-09-12T22:07:07.567Z,13.11
2022-09-12T22:09:36.211Z,13.09
2022-09-12T22:12:05.052Z,13.07
2022-09-12T22:14:34.141Z,13.11
2022-09-12T22:17:03.436Z,13.08
2022-09-12T22:19:32.955Z,13.08
2022-09-12T22:22:19.960Z,13.11
2022-09-12T22:24:48.763Z,13.11
2022-09-12T22:27:18.156Z,13.12
2022-09-12T22:29:49.980Z,13.13
2022-09-12T22:32:21.550Z,13.13
2022-09-12T22:34:50.255Z,13.11
2022-09-12T22:37:19.053Z,13.11
2022-09-12T22:39:47.872Z,13.13
2022-09-12T22:42:16.552Z,13.13
2022-09-12T22:44:45.323Z,13.11
2022-09-12T22:47:14.303Z,13.12
2022-09-12T22:49:43.107Z,13.10
2022-09-12T22:52:11.785Z,13.10
2022-09-12T22:54:40.580Z,13.07
2022-09-12T22:57:09.676Z,13.07
2022-09-12T22:59:38.661Z,13.09
2022-09-12T23:02:07.357Z,13.10
2022-09-12T23:04:36.154Z,13.11
2022-09-12T23:07:05.447Z,13.07
2022-09-12T23:09:35.515Z,13.07
2022-09-12T23:12:05.172Z,13.08
2022-09-12T23:14:33.862Z,13.07
2022-09-12T23:17:02.560Z,13.02
2022-09-12T23:19:31.341Z,13.00
2022-09-12T23:22:00.022Z,13.00
2022-09-12T23:24:28.932Z,13.02
2022-09-12T23:26:57.910Z,13.01
2022-09-12T23:29:27.672Z,12.96
2022-09-12T23:31:56.403Z,13.00
2022-09-12T23:34:25.150Z,12.96
2022-09-12T23:36:56.546Z,12.96
2022-09-12T23:39:25.521Z,12.93
2022-09-12T23:41:54.572Z,12.93
2022-09-12T23:44:23.321Z,12.89
2022-09-12T23:46:52.004Z,12.91
2022-09-12T23:49:21.316Z,12.90
2022-09-12T23:51:50.000Z,12.89
2022-09-12T23:54:18.790Z,12.86
2022-09-12T23:56:47.467Z,12.84
2022-09-12T23:59:16.268Z,12.84
